Impacts TAF Board
For situational awareness. Not to be used for flight planning purposes.
IDs:

KAFW - Fort Worth/Alliance, TX, US

Issued at 2058 UTC 01 Dec 2021
Updated at 2156 UTC 01 Dec 2021
Potential Impact None Slight Moderate High
Time2153Z 01/22Z 01/23Z 02/00Z 02/01Z 02/02Z 02/03Z 02/04Z 02/05Z 02/06Z 02/07Z 02/08Z 02/09Z 02/10Z>>
Type OBS PRVL PRVL PRVL PRVL PRVL PRVL PRVL PRVL PRVL PRVL PRVL PRVL PRVL
VIS 10 >6 >6 >6 >6 >6 >6 >6 >6 >6 >6 >6 >6 >6
CIG -- -- -- -- -- -- -- -- -- -- -- -- -- --
Cover FEW FEW FEW FEW FEW FEW FEW FEW FEW FEW FEW FEW FEW FEW
FltCat VFR VFR VFR VFR VFR VFR VFR VFR VFR VFR VFR VFR VFR VFR
WX -- -- -- -- -- -- -- -- -- -- -- -- -- --
WDir VRB 320 320 320 320 210 210 210 210 210 210 210 210 210
WSpd 6 6 6 6 6 8 8 8 8 8 8 8 8 8
WGst -- -- -- -- -- -- -- -- -- -- -- -- -- --
WSHgt -- -- -- -- -- -- -- -- -- -- -- -- -- --
WSDir -- -- -- -- -- -- -- -- -- -- -- -- -- --
WSSpd -- -- -- -- -- -- -- -- -- -- -- -- -- --
Raw TAF
KAFW 012058Z 0121/0218 32006KT P6SM FEW250
  FM020200 21008KT P6SM FEW250


Raw METAR
KAFW 012153Z VRB06KT 10SM FEW250 23/06 A3006 RMK AO2 SLP173 FROPA T02330061
KAFW 012053Z 33005KT 10SM FEW250 23/06 A3005 RMK AO2 SLP168 T02330061 56015
KAFW 011953Z 36008KT 10SM FEW250 23/06 A3006 RMK AO2 SLP173 T02280061
KAFW 011853Z 31005KT 10SM FEW250 22/07 A3008 RMK AO2 SLP179 T02170067

METAR Board
Radar Display
Forecast Discussion
For situational awareness. Not to be used for flight planning purposes.